Time;durP1;ratioP1;P1;durP2;ratioP2;P2;SDS_P1;SDS_P2;PMS_P1;PMS_P2;Temp;Humidity;BMP_temperature;BMP_pressure;BME280_temperature;BME280_humidity;BME280_pressure;Samples;Min_cycle;Max_cycle;Signal;HPM_P1;HPM_P2
2021/05/22 00:01:57;;;;;;;1.13;0.30;;;;;;;10.59;66.91;97966.19;5072358;28;20090;-68
2021/05/22 00:04:23;;;;;;;0.52;0.30;;;;;;;10.66;66.23;97975.06;5082899;28;20445;-68
2021/05/22 00:06:48;;;;;;;0.80;0.50;;;;;;;10.69;66.20;97966.50;5073482;28;20107;-68
2021/05/22 00:09:13;;;;;;;0.77;0.30;;;;;;;10.73;66.04;97962.28;5083061;28;20024;-67
2021/05/22 00:11:38;;;;;;;2.03;0.50;;;;;;;10.61;66.01;97955.97;5072850;28;20105;-68
2021/05/22 00:14:05;;;;;;;1.85;0.45;;;;;;;10.77;65.75;97984.31;5072118;28;20029;-68
2021/05/22 00:16:30;;;;;;;1.13;0.40;;;;;;;10.79;65.22;97973.25;5073055;28;20036;-67
2021/05/22 00:18:55;;;;;;;2.90;0.50;;;;;;;10.79;65.18;97976.78;5053645;28;20035;-67
2021/05/22 00:21:21;;;;;;;1.38;0.50;;;;;;;10.79;65.40;97975.94;5072321;28;20035;-68
2021/05/22 00:23:47;;;;;;;2.55;0.70;;;;;;;10.79;65.67;97997.59;5083140;28;20460;-68
2021/05/22 00:26:12;;;;;;;1.05;0.47;;;;;;;10.77;65.45;98011.38;5077799;28;20137;-68
2021/05/22 00:28:37;;;;;;;3.35;0.52;;;;;;;10.59;65.67;97985.13;5074689;28;20024;-68
2021/05/22 00:31:03;;;;;;;3.47;0.65;;;;;;;10.71;65.22;97993.31;5072055;28;20478;-68
2021/05/22 00:33:28;;;;;;;2.45;0.52;;;;;;;10.80;65.21;98000.09;5072706;28;20056;-68
2021/05/22 00:35:54;;;;;;;2.35;0.70;;;;;;;10.77;65.05;97994.28;5056330;28;20024;-68
2021/05/22 00:38:20;;;;;;;2.25;0.38;;;;;;;10.80;64.50;97996.56;5076715;28;20032;-68
2021/05/22 00:40:45;;;;;;;2.33;0.50;;;;;;;10.83;64.01;97982.59;5053976;28;20024;-68
2021/05/22 00:43:10;;;;;;;1.08;0.47;;;;;;;10.93;63.40;97996.41;5078814;28;20400;-68
2021/05/22 00:45:36;;;;;;;4.07;1.00;;;;;;;10.90;62.97;97983.34;5075336;28;20024;-67
2021/05/22 00:48:02;;;;;;;2.22;0.40;;;;;;;10.96;62.98;98007.59;5076087;28;20024;-68
2021/05/22 00:50:37;;;;;;;3.95;0.57;;;;;;;10.93;63.43;98013.47;5073190;28;20355;-67
2021/05/22 00:53:05;;;;;;;3.15;0.60;;;;;;;10.97;62.96;98009.25;5071971;28;20020;-67
2021/05/22 00:55:31;;;;;;;4.47;0.70;;;;;;;10.99;63.13;98009.03;5071855;28;20029;-67
2021/05/22 00:57:56;;;;;;;4.18;0.68;;;;;;;10.94;63.28;98008.88;5054777;28;20035;-68
2021/05/22 01:00:45;;;;;;;2.65;0.35;;;;;;;10.88;63.29;98010.63;5084754;28;20418;-68
2021/05/22 01:03:22;;;;;;;1.17;0.63;;;;;;;10.92;63.35;98019.91;5084083;28;20405;-68
2021/05/22 01:05:48;;;;;;;6.93;1.20;;;;;;;10.90;63.35;98008.53;5078996;28;20021;-67
2021/05/22 01:08:23;;;;;;;1.38;0.68;;;;;;;10.90;63.72;98021.22;5071451;28;20493;-67
2021/05/22 01:10:59;;;;;;;2.63;0.52;;;;;;;10.77;63.88;97997.84;5072104;28;20596;-67
2021/05/22 01:13:28;;;;;;;1.13;0.43;;;;;;;10.78;63.55;98002.19;5070907;28;20728;-68
2021/05/22 01:15:55;;;;;;;4.05;0.60;;;;;;;10.80;63.61;98008.22;5053649;28;20035;-67
2021/05/22 01:18:21;;;;;;;1.27;0.50;;;;;;;10.88;64.07;98023.31;5070753;28;20036;-68
2021/05/22 01:20:54;;;;;;;3.75;0.70;;;;;;;10.84;64.17;98031.03;5080319;28;20072;-67
2021/05/22 01:23:32;;;;;;;1.95;0.65;;;;;;;10.81;64.49;98033.38;5071104;28;20024;-67
2021/05/22 01:25:58;;;;;;;1.45;0.50;;;;;;;10.75;65.10;98035.94;5072294;28;20062;-68
2021/05/22 01:28:24;;;;;;;0.95;0.30;;;;;;;10.68;65.63;98028.94;5071124;28;20028;-67
2021/05/22 01:30:49;;;;;;;1.08;0.50;;;;;;;10.51;65.57;98025.97;5071184;28;20073;-67
2021/05/22 01:33:17;;;;;;;1.73;0.30;;;;;;;10.45;66.20;98037.66;5071668;28;20486;-67
2021/05/22 01:35:43;;;;;;;0.43;0.40;;;;;;;10.35;66.19;98010.28;5072464;28;20557;-67
2021/05/22 01:38:08;;;;;;;3.58;0.40;;;;;;;10.39;66.11;98035.84;5072481;28;20056;-67
2021/05/22 01:40:35;;;;;;;0.93;0.40;;;;;;;10.36;66.36;98045.22;5073507;28;20032;-67
2021/05/22 01:43:00;;;;;;;2.13;0.40;;;;;;;10.34;67.28;98076.25;5080935;28;20486;-67
2021/05/22 01:45:32;;;;;;;3.15;0.40;;;;;;;10.26;67.87;98078.13;5076812;28;20032;-67
2021/05/22 01:47:59;;;;;;;2.40;0.60;;;;;;;10.12;68.77;98114.41;5081683;28;20117;-68
2021/05/22 01:50:26;;;;;;;5.55;0.38;;;;;;;9.63;70.03;98118.59;5063992;28;20506;-69
2021/05/22 01:52:55;;;;;;;1.23;0.50;;;;;;;9.27;72.56;98119.97;5080201;28;20028;-69
2021/05/22 01:55:22;;;;;;;3.45;0.70;;;;;;;8.94;74.75;98099.28;5094918;28;20055;-69
2021/05/22 01:57:47;;;;;;;4.28;0.50;;;;;;;8.89;76.29;98123.38;5075136;28;20024;-69
2021/05/22 02:00:14;;;;;;;2.38;0.60;;;;;;;8.59;77.49;98119.44;5074962;28;20025;-69
2021/05/22 02:02:51;;;;;;;1.00;0.50;;;;;;;8.51;78.31;98115.06;5077001;28;20493;-70
2021/05/22 02:05:18;;;;;;;4.75;0.50;;;;;;;8.42;77.92;98106.38;5087805;28;20107;-69
2021/05/22 02:07:45;;;;;;;2.30;0.77;;;;;;;8.42;78.15;98109.06;5075503;28;20028;-67
2021/05/22 02:10:11;;;;;;;2.22;0.52;;;;;;;8.31;79.36;98099.69;5074962;28;20036;-67
2021/05/22 02:12:38;;;;;;;2.47;0.40;;;;;;;8.33;79.07;98099.47;5074031;28;20028;-67
2021/05/22 02:15:09;;;;;;;3.13;0.65;;;;;;;8.29;79.23;98119.81;5075444;28;20514;-67
2021/05/22 02:17:36;;;;;;;2.03;0.50;;;;;;;8.26;78.79;98122.91;5073702;28;20032;-69
2021/05/22 02:20:03;;;;;;;3.92;0.60;;;;;;;8.22;79.50;98116.28;5074690;28;20369;-68
2021/05/22 02:22:30;;;;;;;1.40;0.40;;;;;;;8.16;80.91;98126.00;5057054;28;20485;-67
2021/05/22 02:24:56;;;;;;;3.08;0.70;;;;;;;8.16;80.74;98117.09;5075322;28;20457;-67
2021/05/22 02:27:22;;;;;;;2.30;0.75;;;;;;;8.07;81.49;98109.22;5091856;28;20102;-68
2021/05/22 02:29:48;;;;;;;4.70;0.50;;;;;;;7.99;82.75;98100.47;5075888;28;20038;-68
2021/05/22 02:32:15;;;;;;;2.17;0.47;;;;;;;7.92;82.27;98102.34;5074277;28;20425;-68
2021/05/22 02:34:50;;;;;;;2.55;0.40;;;;;;;7.73;82.93;98074.31;5074840;28;20116;-68
2021/05/22 02:37:19;;;;;;;3.80;0.50;;;;;;;7.75;83.71;98083.84;5090276;28;20028;-68
2021/05/22 02:39:49;;;;;;;2.80;0.50;;;;;;;7.68;83.33;98062.31;5078482;28;20130;-68
2021/05/22 02:42:15;;;;;;;3.03;0.57;;;;;;;7.58;83.80;98064.53;5094007;28;20054;-68
2021/05/22 02:44:42;;;;;;;5.78;0.73;;;;;;;7.61;84.28;98074.06;5077814;28;20083;-68
2021/05/22 02:47:10;;;;;;;2.53;0.60;;;;;;;7.55;85.05;98059.56;5055717;28;20021;-68
2021/05/22 02:49:41;;;;;;;6.15;1.50;;;;;;;7.43;85.08;98055.78;5073803;28;20036;-68
2021/05/22 02:52:07;;;;;;;1.45;0.35;;;;;;;7.43;85.68;98059.31;5055187;28;20378;-68
2021/05/22 02:54:38;;;;;;;1.35;0.38;;;;;;;7.41;85.12;98053.31;5073202;28;20035;-68
2021/05/22 02:57:05;;;;;;;4.15;0.77;;;;;;;7.47;86.34;98071.34;5073560;28;20103;-68
2021/05/22 02:59:32;;;;;;;1.67;0.63;;;;;;;7.54;85.38;98070.53;5075179;28;20035;-68
2021/05/22 03:01:58;;;;;;;1.05;0.57;;;;;;;7.58;85.02;98080.69;5079029;28;20050;-68
2021/05/22 03:04:23;;;;;;;4.53;0.70;;;;;;;7.60;84.64;98067.03;5076496;28;20033;-68
2021/05/22 03:06:48;;;;;;;2.45;0.65;;;;;;;7.67;84.49;98068.69;5073497;28;20025;-68
2021/05/22 03:09:14;;;;;;;2.17;0.28;;;;;;;7.69;83.67;98074.72;5073359;28;20393;-68
2021/05/22 03:11:39;;;;;;;7.13;0.63;;;;;;;7.63;84.74;98056.69;5073403;28;20036;-68
2021/05/22 03:14:05;;;;;;;2.67;0.50;;;;;;;7.81;83.35;98083.03;5086165;28;20035;-68
2021/05/22 03:16:30;;;;;;;4.00;0.75;;;;;;;7.85;83.52;98089.66;5057699;28;20028;-68
2021/05/22 03:18:56;;;;;;;0.75;0.30;;;;;;;7.82;83.81;98089.25;5062706;28;20032;-68
2021/05/22 03:21:21;;;;;;;1.90;0.45;;;;;;;7.86;83.92;98095.91;5089954;28;20027;-68
2021/05/22 03:23:46;;;;;;;2.40;0.70;;;;;;;7.96;83.38;98101.72;5072920;28;20037;-68
2021/05/22 03:26:12;;;;;;;0.85;0.40;;;;;;;7.94;82.30;98086.78;5073452;28;20024;-68
2021/05/22 03:28:37;;;;;;;3.83;0.40;;;;;;;7.98;83.16;98094.25;5072674;28;20020;-68
2021/05/22 03:31:03;;;;;;;1.73;0.38;;;;;;;8.00;83.39;98091.38;5073141;28;20036;-68
2021/05/22 03:33:28;;;;;;;1.92;0.50;;;;;;;7.94;83.65;98090.34;5073569;28;20031;-68
2021/05/22 03:35:53;;;;;;;2.25;0.45;;;;;;;7.81;83.54;98093.00;5061981;28;20082;-68
2021/05/22 03:38:19;;;;;;;1.63;0.30;;;;;;;7.80;83.97;98094.00;5092632;28;20028;-68
2021/05/22 03:40:46;;;;;;;3.05;0.40;;;;;;;7.69;84.40;98074.72;5093253;28;20118;-68
2021/05/22 03:43:11;;;;;;;5.07;0.30;;;;;;;7.83;83.87;98094.44;5084712;28;20036;-68
2021/05/22 03:45:36;;;;;;;0.82;0.30;;;;;;;7.83;83.90;98096.28;5073311;28;20017;-68
2021/05/22 03:48:03;;;;;;;1.15;0.40;;;;;;;7.79;83.54;98089.66;5072606;28;20052;-68
2021/05/22 03:50:28;;;;;;;1.00;0.40;;;;;;;7.95;83.35;98093.84;5074271;28;20490;-67
2021/05/22 03:52:53;;;;;;;0.47;0.28;;;;;;;7.95;83.72;98104.63;5079576;28;20043;-68
2021/05/22 03:55:19;;;;;;;1.75;0.30;;;;;;;7.96;84.13;98107.09;5073678;28;20052;-68
2021/05/22 03:57:44;;;;;;;0.52;0.20;;;;;;;8.01;83.43;98085.75;5074714;28;20028;-68
2021/05/22 04:00:10;;;;;;;0.90;0.30;;;;;;;8.07;82.96;98103.81;5071928;28;20466;-67
2021/05/22 04:02:36;;;;;;;2.88;0.50;;;;;;;8.07;83.79;98109.22;5073238;28;20021;-67
2021/05/22 04:05:03;;;;;;;1.38;0.30;;;;;;;8.18;83.24;98107.78;5071954;28;20370;-67
2021/05/22 04:07:28;;;;;;;0.52;0.30;;;;;;;8.29;82.23;98122.50;5054482;28;20141;-68
2021/05/22 04:09:53;;;;;;;3.00;0.43;;;;;;;8.31;82.01;98104.28;5072165;28;20567;-67
2021/05/22 04:12:19;;;;;;;1.70;0.30;;;;;;;8.42;82.21;98100.16;5070945;28;20030;-70
2021/05/22 04:14:44;;;;;;;0.65;0.35;;;;;;;8.30;81.95;98087.25;5074953;28;20428;-72
2021/05/22 04:17:10;;;;;;;1.75;0.40;;;;;;;8.43;81.63;98108.03;5072602;28;20039;-71
2021/05/22 04:19:35;;;;;;;1.25;0.55;;;;;;;8.33;81.42;98080.63;5064642;28;20110;-71
2021/05/22 04:22:00;;;;;;;1.63;0.40;;;;;;;8.37;81.57;98089.13;5075020;28;20107;-72
2021/05/22 04:24:26;;;;;;;2.03;0.60;;;;;;;8.40;81.76;98081.47;5072057;28;20103;-72
2021/05/22 04:26:51;;;;;;;2.63;0.40;;;;;;;8.41;81.19;98080.47;5074603;28;20028;-71
2021/05/22 04:29:17;;;;;;;3.95;0.50;;;;;;;8.54;81.28;98099.34;5063563;28;20032;-72
2021/05/22 04:31:42;;;;;;;2.22;0.50;;;;;;;8.53;80.95;98083.34;5074597;28;20055;-72
2021/05/22 04:34:07;;;;;;;4.53;0.50;;;;;;;8.55;81.34;98092.91;5057245;28;20032;-74
2021/05/22 04:36:33;;;;;;;1.67;0.50;;;;;;;8.63;81.01;98094.56;5054049;28;20021;-73
2021/05/22 04:38:58;;;;;;;4.07;0.52;;;;;;;8.61;80.33;98075.06;5071834;28;20052;-73
2021/05/22 04:41:23;;;;;;;2.38;0.60;;;;;;;8.72;80.30;98095.16;5085477;28;20114;-73
2021/05/22 04:43:49;;;;;;;1.98;0.60;;;;;;;8.65;79.81;98079.00;5054314;28;20111;-73
2021/05/22 04:46:14;;;;;;;1.23;0.80;;;;;;;8.84;80.00;98098.88;5072054;28;20077;-74
2021/05/22 04:48:39;;;;;;;2.13;0.50;;;;;;;8.80;79.47;98100.34;5053751;28;20589;-75
2021/05/22 04:51:06;;;;;;;1.95;0.60;;;;;;;8.75;79.91;98106.38;5053620;28;20028;-73
2021/05/22 04:53:34;;;;;;;1.10;0.50;;;;;;;8.82;80.68;98106.34;5088132;28;20076;-74
2021/05/22 04:56:00;;;;;;;3.55;0.60;;;;;;;8.74;80.74;98096.59;5088389;28;20505;-75
2021/05/22 04:58:25;;;;;;;2.35;0.70;;;;;;;9.04;79.88;98108.81;5053777;28;20063;-71
2021/05/22 05:00:51;;;;;;;2.53;0.50;;;;;;;9.48;77.72;98124.25;5071779;28;20098;-75
2021/05/22 05:03:16;;;;;;;1.92;0.70;;;;;;;9.68;76.09;98099.88;5081943;28;20141;-73
2021/05/22 05:05:41;;;;;;;2.60;0.60;;;;;;;10.11;75.06;98110.03;5071883;28;20386;-72
2021/05/22 05:08:07;;;;;;;1.13;0.30;;;;;;;10.01;74.31;98115.13;5053395;28;20032;-71
2021/05/22 05:10:32;;;;;;;4.20;0.55;;;;;;;10.16;73.82;98112.91;5058716;28;20456;-73
2021/05/22 05:12:58;;;;;;;3.38;0.77;;;;;;;10.21;74.03;98120.38;5066251;28;20031;-76
2021/05/22 05:15:23;;;;;;;2.05;0.73;;;;;;;10.21;73.92;98109.56;5063978;28;20075;-71
2021/05/22 05:17:48;;;;;;;3.67;0.95;;;;;;;10.22;74.33;98130.16;5059718;28;20031;-70
2021/05/22 05:20:14;;;;;;;3.05;0.73;;;;;;;10.25;74.32;98114.34;5075999;28;20020;-72
2021/05/22 05:22:39;;;;;;;1.27;0.70;;;;;;;10.51;73.77;98132.28;5083419;28;20123;-69
2021/05/22 05:25:06;;;;;;;1.02;0.55;;;;;;;10.56;74.71;98120.81;5075875;28;20070;-70
2021/05/22 05:27:31;;;;;;;1.42;0.57;;;;;;;10.59;74.72;98114.13;5076502;28;20029;-72
2021/05/22 05:29:57;;;;;;;0.90;0.40;;;;;;;10.78;72.85;98121.25;5085769;28;20371;-70
2021/05/22 05:32:22;;;;;;;2.70;0.50;;;;;;;10.80;73.16;98124.56;5070247;28;20550;-70
2021/05/22 05:34:47;;;;;;;2.20;0.60;;;;;;;10.72;72.68;98114.84;5057430;28;20485;-70
2021/05/22 05:37:13;;;;;;;3.13;0.57;;;;;;;10.63;73.48;98129.69;5090326;28;20051;-70
2021/05/22 05:39:39;;;;;;;1.77;0.40;;;;;;;10.67;72.43;98130.09;5075702;28;20107;-70
2021/05/22 05:42:05;;;;;;;1.10;0.50;;;;;;;10.59;72.04;98149.28;5075354;28;20070;-70
2021/05/22 05:44:31;;;;;;;2.92;0.60;;;;;;;10.61;70.68;98126.38;5075834;28;20072;-70
2021/05/22 05:46:56;;;;;;;4.13;0.70;;;;;;;10.66;71.65;98133.81;5078938;28;20024;-70
2021/05/22 05:49:22;;;;;;;1.58;0.47;;;;;;;10.97;70.95;98124.81;5080793;28;20028;-69
2021/05/22 05:51:47;;;;;;;2.47;0.40;;;;;;;11.15;69.34;98122.13;5076353;28;20482;-68
2021/05/22 05:54:12;;;;;;;4.32;0.70;;;;;;;11.09;69.87;98128.44;5082620;28;20052;-69
2021/05/22 05:56:38;;;;;;;4.18;0.75;;;;;;;11.37;68.55;98132.53;5081634;28;20478;-67
2021/05/22 05:59:03;;;;;;;4.97;0.68;;;;;;;11.45;69.10;98124.13;5074703;28;20082;-71
2021/05/22 06:01:30;;;;;;;4.32;0.60;;;;;;;11.48;68.59;98120.13;5057183;28;20111;-71
2021/05/22 06:03:55;;;;;;;1.48;0.50;;;;;;;11.79;68.71;98116.44;5075091;28;20024;-70
2021/05/22 06:06:21;;;;;;;3.17;0.50;;;;;;;12.12;67.09;98113.28;5083201;28;20034;-71
2021/05/22 06:08:46;;;;;;;4.88;0.63;;;;;;;12.17;65.00;98124.28;5089437;28;20016;-71
2021/05/22 06:11:14;;;;;;;2.42;0.65;;;;;;;12.17;66.04;98123.44;5057669;28;20048;-70
2021/05/22 06:13:39;;;;;;;4.53;0.98;;;;;;;12.40;64.86;98122.69;5075025;28;20378;-71
2021/05/22 06:18:32;;;;;;;1.63;0.50;;;;;;;12.97;63.08;98127.63;5080386;28;20024;-70
2021/05/22 06:20:58;;;;;;;3.22;0.55;;;;;;;13.40;61.92;98123.75;5078610;28;20020;-71
2021/05/22 06:23:23;;;;;;;3.15;0.60;;;;;;;13.71;60.03;98127.94;5074109;28;20066;-71
2021/05/22 06:25:50;;;;;;;1.77;0.68;;;;;;;13.49;59.98;98125.03;5063701;28;20115;-71
2021/05/22 06:28:15;;;;;;;3.65;0.40;;;;;;;14.14;60.45;98122.00;5076576;28;20020;-71
2021/05/22 06:30:40;;;;;;;1.58;0.50;;;;;;;14.65;59.12;98130.31;5075091;28;20039;-70
2021/05/22 06:33:06;;;;;;;3.92;0.70;;;;;;;14.94;57.30;98114.72;5073527;28;20024;-71
2021/05/22 06:35:31;;;;;;;1.92;0.40;;;;;;;14.88;56.57;98121.13;5063415;28;20060;-71
2021/05/22 06:37:56;;;;;;;4.00;0.60;;;;;;;14.89;56.19;98115.44;5057969;28;20127;-71
2021/05/22 06:40:23;;;;;;;2.63;0.60;;;;;;;14.57;57.79;98114.38;5075384;28;20028;-71
2021/05/22 06:42:48;;;;;;;3.70;0.60;;;;;;;14.47;56.02;98125.88;5073838;28;20032;-71
2021/05/22 06:45:16;;;;;;;1.83;0.40;;;;;;;14.47;56.32;98128.59;5073279;28;20120;-71
2021/05/22 06:47:41;;;;;;;6.68;0.60;;;;;;;14.76;55.87;98128.56;5058744;28;20135;-71
2021/05/22 06:50:07;;;;;;;2.20;0.52;;;;;;;16.02;53.23;98108.00;5080076;28;20521;-72
2021/05/22 06:52:33;;;;;;;2.90;0.40;;;;;;;15.60;53.29;98124.91;5076962;28;20462;-70
2021/05/22 06:54:58;;;;;;;3.42;0.52;;;;;;;15.18;53.42;98119.97;5073235;28;20061;-72
2021/05/22 06:57:24;;;;;;;3.10;0.68;;;;;;;15.01;55.00;98130.88;5057978;28;20493;-69
2021/05/22 06:59:50;;;;;;;2.85;0.60;;;;;;;16.02;52.10;98119.75;5075404;28;20170;-63
2021/05/22 07:02:15;;;;;;;3.03;0.60;;;;;;;16.82;49.02;98123.56;5072178;28;20056;-72
2021/05/22 07:04:41;;;;;;;2.47;0.52;;;;;;;15.95;51.61;98133.56;5083403;28;20430;-70
2021/05/22 07:07:06;;;;;;;5.38;0.70;;;;;;;16.08;50.54;98129.63;5065534;28;20117;-69
2021/05/22 07:09:32;;;;;;;6.40;0.68;;;;;;;16.52;48.41;98118.63;5073944;28;20497;-72
2021/05/22 07:11:58;;;;;;;1.58;0.60;;;;;;;17.57;45.23;98111.75;5056198;28;20020;-72
2021/05/22 07:14:24;;;;;;;2.40;0.55;;;;;;;17.60;46.07;98112.03;5076097;28;20480;-71
2021/05/22 07:16:49;;;;;;;4.88;0.60;;;;;;;18.99;43.87;98129.69;5078500;28;20047;-73
2021/05/22 07:19:14;;;;;;;2.70;0.50;;;;;;;20.38;40.17;98116.38;5082650;28;20416;-73
2021/05/22 07:21:40;;;;;;;6.68;0.55;;;;;;;20.86;39.88;98120.22;5080019;28;20115;-73
2021/05/22 07:24:05;;;;;;;4.88;0.68;;;;;;;19.49;41.10;98114.25;5063968;28;20028;-73
2021/05/22 07:26:31;;;;;;;6.35;0.45;;;;;;;22.58;36.81;98114.97;5061609;28;20023;-75
2021/05/22 07:28:56;;;;;;;2.08;0.60;;;;;;;17.84;43.77;98119.84;5076924;28;20044;-74
2021/05/22 07:31:22;;;;;;;5.07;0.70;;;;;;;17.22;46.65;98126.88;5070719;28;20557;-74
2021/05/22 07:33:50;;;;;;;2.00;0.65;;;;;;;17.88;43.91;98096.34;5085993;28;20417;-73
2021/05/22 07:36:17;;;;;;;2.78;0.70;;;;;;;18.39;43.62;98115.63;5072392;28;20047;-74
2021/05/22 07:38:43;;;;;;;2.17;0.50;;;;;;;21.11;38.43;98108.16;5060156;28;20028;-73
2021/05/22 07:41:09;;;;;;;6.03;0.75;;;;;;;22.88;34.66;98107.38;5072702;28;20093;-72
2021/05/22 07:43:34;;;;;;;2.00;0.32;;;;;;;22.78;35.98;98100.06;5061076;28;20085;-73
2021/05/22 07:46:00;;;;;;;6.88;0.52;;;;;;;21.08;37.98;98118.94;5081531;28;20020;-73
2021/05/22 07:48:26;;;;;;;5.15;0.68;;;;;;;21.48;36.90;98116.91;5079926;28;20504;-74
2021/05/22 07:50:53;;;;;;;4.05;0.55;;;;;;;20.59;38.31;98109.69;5081756;28;20200;-73
2021/05/22 07:53:19;;;;;;;2.05;0.57;;;;;;;23.06;35.66;98102.97;5073153;28;20048;-72
2021/05/22 07:55:45;;;;;;;5.90;0.77;;;;;;;19.08;40.77;98121.75;5077795;28;20458;-72
2021/05/22 07:58:11;;;;;;;2.28;0.52;;;;;;;17.36;43.93;98124.50;5072820;28;20064;-73
2021/05/22 08:00:36;;;;;;;1.67;0.50;;;;;;;16.60;46.41;98125.53;5072658;28;20035;-73
2021/05/22 08:03:01;;;;;;;3.70;0.55;;;;;;;20.09;39.82;98100.63;5084139;28;20052;-72
2021/05/22 08:05:27;;;;;;;2.25;0.60;;;;;;;21.73;37.35;98104.81;5059972;28;20032;-73
2021/05/22 08:07:53;;;;;;;5.95;0.60;;;;;;;22.99;35.26;98108.03;5087826;28;20663;-67
2021/05/22 08:10:19;;;;;;;1.50;0.43;;;;;;;19.33;41.12;98098.94;5073545;28;20024;-72
2021/05/22 08:12:44;;;;;;;5.65;0.98;;;;;;;22.12;37.80;98117.56;5072761;28;20158;-68
2021/05/22 08:15:12;;;;;;;4.57;0.60;;;;;;;20.44;38.46;98115.25;5081437;28;20024;-71
2021/05/22 08:17:38;;;;;;;2.67;0.68;;;;;;;22.79;36.28;98098.94;5085442;28;20036;-72
2021/05/22 08:20:04;;;;;;;5.47;0.70;;;;;;;24.60;33.25;98109.00;5056081;28;20020;-70
2021/05/22 08:22:29;;;;;;;14.02;3.20;;;;;;;24.32;34.33;98109.06;5083222;28;20039;-70
2021/05/22 08:24:55;;;;;;;3.75;0.75;;;;;;;21.83;37.13;98115.72;5073000;28;20623;-67
2021/05/22 08:27:21;;;;;;;4.78;0.47;;;;;;;20.55;40.53;98111.38;5070531;28;20033;-70
2021/05/22 08:29:47;;;;;;;4.43;0.60;;;;;;;19.83;41.34;98113.63;5078599;28;20024;-70
2021/05/22 08:32:12;;;;;;;5.65;0.75;;;;;;;22.51;37.38;98106.28;5089193;28;20478;-70
2021/05/22 08:34:39;;;;;;;3.08;0.55;;;;;;;22.82;36.52;98100.28;5083448;28;20024;-68
2021/05/22 08:37:08;;;;;;;2.50;0.40;;;;;;;20.62;38.22;98097.28;5062902;28;20051;-69
2021/05/22 08:39:34;;;;;;;3.03;0.60;;;;;;;18.77;42.04;98114.34;5080558;28;20024;-69
2021/05/22 08:42:03;;;;;;;3.90;0.50;;;;;;;17.62;42.97;98101.66;5072155;28;20036;-69
2021/05/22 08:44:28;;;;;;;1.83;0.60;;;;;;;17.11;44.44;98092.34;5079273;28;20107;-69
2021/05/22 08:46:54;;;;;;;2.30;0.30;;;;;;;16.45;44.22;98107.06;5079364;28;20048;-70
2021/05/22 08:49:20;;;;;;;2.13;0.57;;;;;;;17.12;42.60;98107.66;5079379;28;20428;-70
2021/05/22 08:51:45;;;;;;;2.38;0.50;;;;;;;19.69;37.98;98097.75;5074856;28;20119;-69
2021/05/22 08:54:11;;;;;;;4.82;0.47;;;;;;;22.83;32.38;98100.00;5090924;28;20422;-63
2021/05/22 08:56:36;;;;;;;2.67;0.52;;;;;;;24.08;31.19;98097.41;5075600;28;20107;-66
2021/05/22 08:59:02;;;;;;;2.25;0.63;;;;;;;22.86;31.40;98090.28;5092122;28;20099;-61
2021/05/22 09:01:28;;;;;;;2.58;0.50;;;;;;;22.60;31.66;98089.88;5087069;28;20070;-68
2021/05/22 09:03:57;;;;;;;2.13;0.50;;;;;;;24.90;29.85;98080.59;5071578;28;20070;-69
2021/05/22 09:06:23;;;;;;;;;;;;;;;24.89;29.38;98078.19;5061019;28;20019;-69
2021/05/22 09:08:59;;;;;;;1.90;0.40;;;;;;;22.79;31.59;98093.41;5078901;28;19912;-73
2021/05/22 09:11:26;;;;;;;3.80;0.65;;;;;;;23.93;30.95;98085.59;5072856;28;20024;-71
2021/05/22 09:13:52;;;;;;;4.43;0.70;;;;;;;22.61;31.49;98091.50;5086340;28;20091;-73
2021/05/22 09:16:17;;;;;;;1.55;0.30;;;;;;;23.48;30.60;98087.31;5060943;28;20119;-73
2021/05/22 09:18:44;;;;;;;4.28;0.52;;;;;;;20.54;33.37;98093.22;5082208;28;20103;-72
2021/05/22 09:21:11;;;;;;;2.53;0.40;;;;;;;19.75;34.40;98093.06;5088398;28;20030;-73
2021/05/22 09:23:42;;;;;;;3.42;0.50;;;;;;;20.03;33.82;98090.75;5069140;28;20020;-71
2021/05/22 09:26:12;;;;;;;4.82;0.60;;;;;;;19.75;35.14;98095.00;5071115;28;20028;-71
2021/05/22 09:28:42;;;;;;;2.67;0.32;;;;;;;18.13;36.47;98099.16;5089215;28;20028;-72
2021/05/22 09:31:10;;;;;;;3.53;0.70;;;;;;;18.94;35.30;98100.38;5075834;28;20097;-70
2021/05/22 09:33:35;;;;;;;1.48;0.50;;;;;;;20.34;34.53;98102.41;5071079;28;20139;-70
2021/05/22 09:36:04;;;;;;;2.85;0.60;;;;;;;23.20;30.91;98103.81;5071279;28;20557;-67
2021/05/22 09:38:55;;;;;;;3.17;0.45;;;;;;;21.65;32.16;98092.50;5072362;28;20028;-68
2021/05/22 09:41:26;;;;;;;3.50;0.70;;;;;;;18.90;35.33;98102.00;5080966;28;20139;-67
2021/05/22 09:44:11;;;;;;;1.48;0.40;;;;;;;20.25;33.88;98102.19;5071100;28;20029;-68
2021/05/22 09:47:02;;;;;;;5.40;0.68;;;;;;;21.28;32.45;98084.91;5072092;28;20113;-67
2021/05/22 09:49:29;;;;;;;1.33;0.32;;;;;;;22.44;31.47;98092.06;5084162;28;20025;-68
2021/05/22 09:52:17;;;;;;;2.90;0.43;;;;;;;23.59;30.30;98077.69;5076360;28;20083;-68
2021/05/22 09:54:43;;;;;;;2.00;0.60;;;;;;;23.96;29.57;98076.66;5076164;28;20117;-67
2021/05/22 09:57:10;;;;;;;2.90;0.73;;;;;;;22.19;30.49;98085.81;5085775;28;20071;-68
2021/05/22 09:59:36;;;;;;;1.58;0.38;;;;;;;23.49;31.37;98083.41;5079683;28;20017;-67
2021/05/22 10:02:01;;;;;;;3.28;0.63;;;;;;;20.92;33.06;98080.56;5054369;28;20024;-68
2021/05/22 10:04:26;;;;;;;3.60;0.55;;;;;;;21.25;32.99;98094.56;5075516;28;20138;-68
2021/05/22 10:06:52;;;;;;;8.43;0.73;;;;;;;21.88;31.86;98077.09;5074837;28;20016;-68
2021/05/22 10:09:20;;;;;;;2.72;0.60;;;;;;;23.32;30.14;98095.88;5074863;28;20028;-68
2021/05/22 10:12:09;;;;;;;1.98;0.90;;;;;;;24.15;29.00;98086.78;5074772;28;20455;-66
2021/05/22 10:14:40;;;;;;;1.95;0.43;;;;;;;25.16;27.94;98088.31;5075201;28;20016;-67
2021/05/22 10:17:07;;;;;;;3.83;0.75;;;;;;;22.11;29.49;98086.41;5087927;28;20032;-68
2021/05/22 10:19:34;;;;;;;2.70;0.70;;;;;;;23.16;29.24;98092.56;5056879;28;20052;-67
2021/05/22 10:22:01;;;;;;;3.08;0.73;;;;;;;24.60;29.34;98079.44;5080541;28;20016;-67
2021/05/22 10:24:27;;;;;;;2.03;0.47;;;;;;;25.14;28.14;98090.53;5091142;28;20032;-66
2021/05/22 10:26:54;;;;;;;3.83;0.40;;;;;;;25.77;26.88;98088.56;5073755;28;20025;-66
2021/05/22 10:29:21;;;;;;;4.95;0.60;;;;;;;26.13;28.02;98070.94;5075954;28;20032;-67
2021/05/22 10:31:48;;;;;;;2.20;0.60;;;;;;;25.17;27.90;98084.38;5077389;28;20514;-67
2021/05/22 10:34:15;;;;;;;1.52;0.40;;;;;;;25.12;27.93;98085.28;5074054;28;20033;-66
2021/05/22 10:36:51;;;;;;;3.42;0.45;;;;;;;24.76;28.17;98081.78;5055815;28;20510;-67
2021/05/22 10:39:33;;;;;;;1.65;0.45;;;;;;;25.31;27.79;98076.81;5086236;28;20161;-67
2021/05/22 10:41:59;;;;;;;2.25;0.45;;;;;;;23.94;29.92;98081.69;5092725;28;20077;-67
2021/05/22 10:44:32;;;;;;;2.28;0.43;;;;;;;22.56;30.63;98086.06;5083002;28;20032;-67
2021/05/22 10:47:12;;;;;;;2.40;0.52;;;;;;;21.77;31.39;98081.06;5071415;28;20031;-67
2021/05/22 10:49:55;;;;;;;3.88;0.65;;;;;;;21.85;30.26;98091.41;5084451;28;20031;-66
2021/05/22 10:52:22;;;;;;;2.15;0.40;;;;;;;23.64;29.08;98080.34;5082735;28;20067;-66
2021/05/22 10:55:06;;;;;;;2.92;0.60;;;;;;;25.47;27.20;98068.09;5085278;28;20024;-67
2021/05/22 10:57:54;;;;;;;2.60;0.63;;;;;;;25.43;26.45;98078.19;5054058;28;20036;-67
2021/05/22 11:00:21;;;;;;;3.05;0.52;;;;;;;25.04;26.86;98066.69;5086409;28;20032;-66
2021/05/22 11:03:08;;;;;;;1.90;0.40;;;;;;;24.38;27.93;98066.34;5067064;28;20379;-67
2021/05/22 11:05:39;;;;;;;3.22;0.50;;;;;;;25.05;26.08;98079.41;5087468;28;20032;-66
2021/05/22 11:08:04;;;;;;;2.50;0.52;;;;;;;25.64;26.17;98070.13;5084295;28;20090;-66
2021/05/22 11:10:38;;;;;;;2.63;0.52;;;;;;;24.35;26.26;98082.75;5079266;28;20036;-66
2021/05/22 11:13:05;;;;;;;1.58;0.35;;;;;;;24.58;27.34;98087.22;5072437;28;20087;-67
2021/05/22 11:15:48;;;;;;;3.65;0.40;;;;;;;24.25;26.03;98070.78;5063555;28;20028;-66
2021/05/22 11:18:19;;;;;;;3.55;0.55;;;;;;;24.93;26.30;98054.25;5090197;28;20538;-66
2021/05/22 11:21:15;;;;;;;2.92;0.60;;;;;;;24.11;27.67;98081.06;5070244;28;20040;-66
2021/05/22 11:24:02;;;;;;;2.78;0.60;;;;;;;24.55;26.47;98078.69;5072166;28;20040;-66
2021/05/22 11:26:45;;;;;;;3.53;0.63;;;;;;;24.75;26.98;98080.97;5051828;28;20024;-66
2021/05/22 11:29:10;;;;;;;3.63;0.38;;;;;;;23.69;28.72;98088.53;5071100;28;20031;-67
2021/05/22 11:31:35;;;;;;;6.07;0.47;;;;;;;23.11;27.55;98100.13;5070803;28;20421;-67
2021/05/22 11:34:19;;;;;;;1.35;0.52;;;;;;;22.66;29.16;98096.94;5070652;28;20150;-67
2021/05/22 11:37:11;;;;;;;3.70;0.75;;;;;;;24.01;28.55;98084.03;5069717;28;20064;-65
2021/05/22 11:39:43;;;;;;;1.55;0.28;;;;;;;25.04;26.82;98090.78;5071421;28;20113;-67
2021/05/22 11:42:31;;;;;;;4.00;0.55;;;;;;;24.96;26.73;98108.97;5070480;28;20029;-67